^^
Station Historical Data
Daily Summary for December 1, 2017 Units:  English    Metric   Both
« Previous Day
Next Day »
Daily Weekly Monthly Yearly Custom
  High: Low: Average:
Temperature: 52.1 °F 29.6 °F 41.3 °F
Dew Point: 40.8 °F 26.5 °F 33.8 °F
Humidity: 94 % 46 % 77 %
Wind Speed: 7.4 mph 0.0 mph 0.8 mph
Wind Gust: 13.8 mph - -
Wind:- - West
Pressure: 30.31 in 30.03 in -
Precipitation: 0.00 in    
Historical Graphs
 
 
Tabular Data for December 1, 2017
Time Temperature Dew Point Pressure Wind Wind Speed Wind Gust Humidity Rainfall Rate (Hourly) solar Conditions
00:03 43.3 °F 40.8 °F 30.04 in Calm     91 % 0.00 in 0.0 W/m2 RA
00:08 43.3 °F 40.8 °F 30.04 in Calm     91 % 0.00 in 0.0 W/m2 RA
00:15 43.3 °F 40.8 °F 30.05 in Calm     91 % 0.00 in 0.0 W/m2 OVC
00:20 43.2 °F 40.8 °F 30.05 in Calm     91 % 0.00 in 0.0 W/m2 OVC
00:25 43.2 °F 40.8 °F 30.05 in Calm     91 % 0.00 in 0.0 W/m2 OVC
00:26 43.2 °F 40.8 °F 30.05 in Calm     91 % 0.00 in 0.0 W/m2 OVC
00:31 43.2 °F 40.8 °F 30.04 in Calm     91 % 0.00 in 0.0 W/m2 OVC
00:46 42.8 °F 40.4 °F 30.04 in Calm     91 % 0.00 in 0.0 W/m2 OVC
00:51 42.3 °F 39.9 °F 30.04 in Calm     91 % 0.00 in 0.0 W/m2 OVC
00:56 42.0 °F 39.6 °F 30.04 in Calm     91 % 0.00 in 0.0 W/m2 OVC
01:01 41.8 °F 39.4 °F 30.04 in Calm     91 % 0.00 in 0.0 W/m2 OVC
01:06 41.6 °F 39.4 °F 30.04 in Calm     92 % 0.00 in 0.0 W/m2 OVC
01:11 41.5 °F 39.3 °F 30.03 in Calm     92 % 0.00 in 0.0 W/m2 OVC
01:16 41.3 °F 39.2 °F 30.04 in Calm     92 % 0.00 in 0.0 W/m2 OVC
01:26 40.6 °F 38.5 °F 30.04 in Calm     92 % 0.00 in 0.0 W/m2 OVC
01:31 40.8 °F 38.7 °F 30.04 in Calm     92 % 0.00 in 0.0 W/m2 OVC
01:36 40.8 °F 38.9 °F 30.05 in Calm     93 % 0.00 in 0.0 W/m2 OVC
01:41 40.4 °F 38.3 °F 30.05 in Calm     92 % 0.00 in 0.0 W/m2 OVC
01:51 39.8 °F 37.7 °F 30.05 in Calm     92 % 0.00 in 0.0 W/m2 OVC
01:56 39.4 °F 37.3 °F 30.06 in Calm     92 % 0.00 in 0.0 W/m2 OVC
02:06 39.4 °F 37.5 °F 30.06 in Calm     93 % 0.00 in 0.0 W/m2 CLR
02:16 39.4 °F 37.5 °F 30.06 in Calm     93 % 0.00 in 0.0 W/m2 CLR
02:22 39.2 °F 37.3 °F 30.06 in Calm     93 % 0.00 in 0.0 W/m2 CLR
02:27 39.0 °F 37.1 °F 30.07 in Calm     93 % 0.00 in 0.0 W/m2 CLR
02:37 39.2 °F 37.6 °F 30.07 in Calm     94 % 0.00 in 0.0 W/m2 SCT
02:42 39.3 °F 37.4 °F 30.07 in West 0.4 mph 1.2 mph 93 % 0.00 in 0.0 W/m2 SCT
02:47 39.4 °F 37.8 °F 30.07 in Calm   2.3 mph 94 % 0.00 in 0.0 W/m2 SCT
02:52 39.9 °F 38.3 °F 30.07 in West 0.2 mph 2.3 mph 94 % 0.00 in 0.0 W/m2 SCT
02:57 40.0 °F 38.4 °F 30.07 in West 0.3 mph 3.5 mph 94 % 0.00 in 0.0 W/m2 SCT
03:02 40.0 °F 38.4 °F 30.07 in Calm   3.5 mph 94 % 0.00 in 0.0 W/m2 FEW
03:07 40.0 °F 38.4 °F 30.07 in West 0.1 mph 3.5 mph 94 % 0.00 in 0.0 W/m2 FEW
03:12 39.7 °F 37.8 °F 30.07 in West 0.1 mph 2.3 mph 93 % 0.00 in 0.0 W/m2 FEW
03:17 39.9 °F 38.3 °F 30.07 in West 0.7 mph 3.5 mph 94 % 0.00 in 0.0 W/m2 FEW
03:22 40.2 °F 38.6 °F 30.07 in West 1.4 mph 3.5 mph 94 % 0.00 in 0.0 W/m2 FEW
03:32 40.1 °F 38.5 °F 30.08 in West 2.3 mph 6.9 mph 94 % 0.00 in 0.0 W/m2 FEW
03:37 40.0 °F 38.4 °F 30.08 in West 1.5 mph 6.9 mph 94 % 0.00 in 0.0 W/m2 OVC
03:42 40.0 °F 38.4 °F 30.08 in West 0.8 mph 5.8 mph 94 % 0.00 in 0.0 W/m2 OVC
03:47 39.8 °F 38.2 °F 30.08 in Calm   5.8 mph 94 % 0.00 in 0.0 W/m2 OVC
03:52 39.6 °F 37.7 °F 30.08 in Calm   3.5 mph 93 % 0.00 in 0.0 W/m2 FEW
03:57 39.1 °F 37.2 °F 30.08 in Calm     93 % 0.00 in 0.0 W/m2 FEW
04:02 38.9 °F 37.0 °F 30.09 in Calm     93 % 0.00 in 0.0 W/m2 CLR
04:07 38.7 °F 37.1 °F 30.08 in Calm     94 % 0.00 in 0.0 W/m2 CLR
04:12 38.3 °F 36.5 °F 30.08 in Calm     93 % 0.00 in 0.0 W/m2 CLR
04:17 38.0 °F 36.4 °F 30.09 in Calm     94 % 0.00 in 0.0 W/m2 CLR
04:22 37.8 °F 36.0 °F 30.09 in Calm     93 % 0.00 in 0.0 W/m2 CLR
04:27 37.8 °F 36.2 °F 30.09 in Calm     94 % 0.00 in 0.0 W/m2 CLR
04:32 37.5 °F 35.9 °F 30.10 in Calm     94 % 0.00 in 0.0 W/m2 CLR
04:37 37.2 °F 35.6 °F 30.10 in Calm     94 % 0.00 in 0.0 W/m2 CLR
04:42 37.7 °F 36.1 °F 30.11 in Calm     94 % 0.00 in 0.0 W/m2 CLR
04:47 37.9 °F 36.3 °F 30.11 in Calm     94 % 0.00 in 0.0 W/m2 CLR
04:52 38.0 °F 36.4 °F 30.11 in Calm     94 % 0.00 in 0.0 W/m2 CLR
05:02 37.7 °F 36.1 °F 30.11 in Calm     94 % 0.00 in 0.0 W/m2 CLR
05:07 37.4 °F 35.8 °F 30.11 in Calm     94 % 0.00 in 0.0 W/m2 CLR
05:12 37.0 °F 35.4 °F 30.11 in Calm     94 % 0.00 in 0.0 W/m2 CLR
05:17 36.8 °F 35.2 °F 30.12 in Calm     94 % 0.00 in 0.0 W/m2 CLR
05:22 37.1 °F 35.5 °F 30.12 in Calm     94 % 0.00 in 0.0 W/m2 CLR
05:27 37.3 °F 35.7 °F 30.12 in Calm     94 % 0.00 in 0.0 W/m2 CLR
05:32 37.6 °F 36.0 °F 30.12 in Calm     94 % 0.00 in 0.0 W/m2 CLR
05:37 37.7 °F 36.1 °F 30.13 in Calm     94 % 0.00 in 0.0 W/m2 CLR
05:42 38.4 °F 36.8 °F 30.13 in Calm     94 % 0.00 in 0.0 W/m2 CLR
05:47 38.4 °F 36.8 °F 30.13 in Calm     94 % 0.00 in 0.0 W/m2 CLR
05:52 38.4 °F 36.8 °F 30.14 in Calm     94 % 0.00 in 0.0 W/m2 CLR
06:03 38.6 °F 37.0 °F 30.14 in Calm     94 % 0.00 in 0.0 W/m2 SCT
06:08 38.6 °F 37.0 °F 30.14 in Calm     94 % 0.00 in 0.0 W/m2 SCT
06:13 38.2 °F 36.6 °F 30.14 in Calm     94 % 0.00 in 0.0 W/m2 SCT
06:18 37.8 °F 36.2 °F 30.15 in Calm     94 % 0.00 in 0.0 W/m2 SCT
06:28 37.3 °F 35.5 °F 30.15 in Calm     93 % 0.00 in 0.0 W/m2 SCT
06:33 37.2 °F 35.6 °F 30.16 in Calm     94 % 0.00 in 0.0 W/m2 SCT
06:38 36.8 °F 35.2 °F 30.16 in Calm     94 % 0.00 in 0.0 W/m2 SCT
06:48 36.4 °F 34.8 °F 30.16 in Calm     94 % 0.00 in 0.0 W/m2 SCT
06:58 35.9 °F 34.1 °F 30.17 in Calm     93 % 0.00 in 0.0 W/m2 SCT
07:03 36.0 °F 34.4 °F 30.17 in Calm     94 % 0.00 in 0.0 W/m2 FEW
07:08 36.1 °F 34.5 °F 30.17 in Calm     94 % 0.00 in 0.0 W/m2 FEW
07:13 36.1 °F 34.5 °F 30.17 in Calm     94 % 0.00 in 5.0 W/m2 FEW
07:18 35.8 °F 34.2 °F 30.17 in Calm     94 % 0.00 in 7.0 W/m2 FEW
07:23 35.5 °F 33.7 °F 30.17 in Calm     93 % 0.00 in 9.0 W/m2 FEW
07:28 35.5 °F 33.9 °F 30.18 in Calm     94 % 0.00 in 12.0 W/m2 FEW
07:33 35.5 °F 33.9 °F 30.17 in Calm     94 % 0.00 in 14.0 W/m2 FEW
07:38 35.4 °F 33.8 °F 30.18 in Calm     94 % 0.00 in 16.0 W/m2 FEW
07:43 35.4 °F 33.8 °F 30.18 in Calm     94 % 0.00 in 21.0 W/m2 FEW
07:48 35.6 °F 34.0 °F 30.18 in Calm     94 % 0.00 in 23.0 W/m2 FEW
07:53 36.1 °F 34.5 °F 30.19 in Calm     94 % 0.00 in 19.0 W/m2 FEW
07:58 36.3 °F 34.7 °F 30.19 in Calm     94 % 0.00 in 21.0 W/m2 FEW
08:03 36.5 °F 34.9 °F 30.19 in Calm     94 % 0.00 in 32.0 W/m2 CLR
08:08 37.0 °F 35.4 °F 30.19 in Calm     94 % 0.00 in 33.0 W/m2 CLR
08:13 37.3 °F 35.7 °F 30.19 in Calm     94 % 0.00 in 25.0 W/m2 CLR
08:23 38.0 °F 36.4 °F 30.20 in Calm     94 % 0.00 in 25.0 W/m2 CLR
08:33 38.9 °F 37.3 °F 30.20 in Calm     94 % 0.00 in 102.0 W/m2 CLR
08:38 39.4 °F 37.5 °F 30.21 in Calm     93 % 0.00 in 169.0 W/m2 CLR
08:53 41.1 °F 38.7 °F 30.22 in West 0.8 mph 1.2 mph 91 % 0.00 in 109.0 W/m2 CLR
08:58 41.6 °F 38.6 °F 30.22 in West 1.8 mph 3.5 mph 89 % 0.00 in 53.0 W/m2 CLR
09:03 42.3 °F 38.7 °F 30.22 in West 0.4 mph 5.8 mph 87 % 0.00 in 109.0 W/m2 CLR
09:08 43.1 °F 38.6 °F 30.22 in West 1.2 mph 5.8 mph 84 % 0.00 in 116.0 W/m2 CLR
09:09 43.1 °F 38.6 °F 30.22 in West 1.1 mph 5.8 mph 84 % 0.00 in 116.0 W/m2 CLR
09:14 43.7 °F 38.3 °F 30.22 in West 1.1 mph 3.5 mph 81 % 0.00 in 107.0 W/m2 CLR
09:19 44.3 °F 37.9 °F 30.23 in West 3.9 mph 6.9 mph 78 % 0.00 in 125.0 W/m2 CLR
09:20 44.3 °F 37.5 °F 30.23 in West 0.4 mph 6.9 mph 77 % 0.00 in 107.0 W/m2 CLR
09:25 44.6 °F 37.5 °F 30.23 in West 0.8 mph 8.1 mph 76 % 0.00 in 257.0 W/m2 CLR
09:30 44.7 °F 37.3 °F 30.23 in WSW 3.8 mph 8.1 mph 75 % 0.00 in 285.0 W/m2 CLR
09:35 45.0 °F 36.9 °F 30.23 in WSW 1.3 mph 6.9 mph 73 % 0.00 in 192.0 W/m2 CLR
09:45 45.1 °F 37.0 °F 30.23 in WSW 4.3 mph 8.1 mph 73 % 0.00 in 100.0 W/m2 CLR
09:50 45.1 °F 37.3 °F 30.23 in West 1.6 mph 8.1 mph 74 % 0.00 in 244.0 W/m2 CLR
09:55 45.3 °F 37.2 °F 30.23 in WSW 5.0 mph 10.0 mph 73 % 0.00 in 183.0 W/m2 CLR
10:00 45.4 °F 36.9 °F 30.23 in SW 1.1 mph 10.4 mph 72 % 0.00 in 174.0 W/m2 CLR
10:10 46.3 °F 36.6 °F 30.23 in West 2.0 mph 8.0 mph 69 % 0.00 in 109.0 W/m2 BKN
10:15 46.6 °F 37.0 °F 30.24 in WSW 2.9 mph 8.1 mph 69 % 0.00 in 258.0 W/m2 BKN
10:16 46.7 °F 37.1 °F 30.24 in West 1.9 mph 6.9 mph 69 % 0.00 in 227.0 W/m2 BKN
10:21 47.2 °F 36.0 °F 30.24 in West 4.1 mph 10.4 mph 65 % 0.00 in 276.0 W/m2 BKN
10:26 47.7 °F 37.3 °F 30.24 in West 2.4 mph 10.4 mph 67 % 0.00 in 519.0 W/m2 BKN
10:31 47.8 °F 35.0 °F 30.24 in NW 4.0 mph 9.2 mph 61 % 0.00 in 195.0 W/m2 BKN
10:41 47.9 °F 34.3 °F 30.24 in West 1.5 mph 8.1 mph 59 % 0.00 in 156.0 W/m2 BKN
10:46 47.7 °F 34.5 °F 30.24 in North 3.5 mph 8.1 mph 60 % 0.00 in 302.0 W/m2 BKN
10:51 48.2 °F 35.0 °F 30.23 in NNW 1.5 mph 8.1 mph 60 % 0.00 in 343.0 W/m2 BKN
10:56 48.2 °F 34.5 °F 30.23 in NW 3.2 mph 11.5 mph 59 % 0.00 in 216.0 W/m2 BKN
11:01 47.9 °F 33.8 °F 30.23 in NW 5.5 mph 11.5 mph 58 % 0.00 in 218.0 W/m2 CLR
11:06 48.0 °F 33.9 °F 30.23 in NNW 1.4 mph 10.4 mph 58 % 0.00 in 406.0 W/m2 CLR
11:11 48.6 °F 34.5 °F 30.23 in North 3.5 mph 13.8 mph 58 % 0.00 in 499.0 W/m2 CLR
11:16 48.5 °F 34.4 °F 30.22 in NW 2.8 mph 13.8 mph 58 % 0.00 in 443.0 W/m2 CLR
11:26 49.0 °F 34.0 °F 30.22 in NW 1.9 mph 9.2 mph 56 % 0.00 in 404.0 W/m2 CLR
11:31 48.5 °F 33.5 °F 30.22 in NNE 1.3 mph 9.2 mph 56 % 0.00 in 439.0 W/m2 CLR
11:36 48.6 °F 34.0 °F 30.22 in Calm   9.2 mph 57 % 0.00 in 513.0 W/m2 CLR
11:41 49.7 °F 33.7 °F 30.22 in NNW 0.8 mph 10.4 mph 54 % 0.00 in 473.0 W/m2 CLR
11:51 50.1 °F 33.6 °F 30.22 in NNW 2.8 mph 4.6 mph 53 % 0.00 in 499.0 W/m2 CLR
11:56 50.2 °F 33.7 °F 30.22 in NNW 1.9 mph 8.1 mph 53 % 0.00 in 568.0 W/m2 CLR
12:01 50.3 °F 34.3 °F 30.22 in NW 7.4 mph 11.5 mph 54 % 0.00 in 550.0 W/m2 CLR
12:13 50.8 °F 33.3 °F 30.21 in NW 0.5 mph 11.5 mph 51 % 0.00 in 478.0 W/m2 CLR
12:18 50.7 °F 33.2 °F 30.21 in West 1.7 mph 8.1 mph 51 % 0.00 in 468.0 W/m2 CLR
12:23 50.7 °F 33.7 °F 30.21 in NNW 2.6 mph 10.4 mph 52 % 0.00 in 461.0 W/m2 CLR
12:33 50.8 °F 33.8 °F 30.21 in NW 4.2 mph 11.5 mph 52 % 0.00 in 457.0 W/m2 CLR
12:38 51.1 °F 34.1 °F 30.21 in WNW 2.8 mph 11.5 mph 52 % 0.00 in 457.0 W/m2 CLR
12:43 51.2 °F 33.2 °F 30.20 in NNW 5.0 mph 9.2 mph 50 % 0.00 in 446.0 W/m2 CLR
12:48 51.2 °F 33.2 °F 30.20 in NNE 3.0 mph 11.5 mph 50 % 0.00 in 439.0 W/m2 CLR
12:53 50.3 °F 33.3 °F 30.20 in North 1.6 mph 11.5 mph 52 % 0.00 in 432.0 W/m2 CLR
12:58 50.1 °F 33.1 °F 30.20 in North 0.2 mph 8.1 mph 52 % 0.00 in 431.0 W/m2 CLR
13:03 50.4 °F 33.4 °F 30.20 in NNW 0.1 mph 4.6 mph 52 % 0.00 in 424.0 W/m2 CLR
13:08 50.7 °F 33.7 °F 30.20 in Calm   4.6 mph 52 % 0.00 in 415.0 W/m2 CLR
13:13 51.3 °F 33.3 °F 30.20 in NW 1.3 mph 3.5 mph 50 % 0.00 in 411.0 W/m2 CLR
13:23 51.6 °F 32.5 °F 30.20 in WNW 2.1 mph 10.4 mph 48 % 0.00 in 394.0 W/m2 CLR
13:28 51.3 °F 32.8 °F 30.20 in NW 3.5 mph 10.4 mph 49 % 0.00 in 403.0 W/m2 CLR
13:33 51.0 °F 33.0 °F 30.20 in NW 3.3 mph 10.4 mph 50 % 0.00 in 380.0 W/m2 CLR
13:43 51.1 °F 32.6 °F 30.20 in West 0.3 mph 8.1 mph 49 % 0.00 in 364.0 W/m2 CLR
13:48 51.5 °F 33.0 °F 30.20 in NW 5.3 mph 10.4 mph 49 % 0.00 in 352.0 W/m2 CLR
13:53 52.0 °F 32.9 °F 30.20 in NW 3.6 mph 11.5 mph 48 % 0.00 in 341.0 W/m2 CLR
14:09 51.5 °F 32.4 °F 30.20 in NW 2.8 mph 5.8 mph 48 % 0.00 in 315.0 W/m2 CLR
14:19 52.1 °F 31.9 °F 30.20 in WNW 3.7 mph 8.1 mph 46 % 0.00 in 294.0 W/m2 CLR
14:34 52.1 °F 31.9 °F 30.21 in NNW 2.1 mph 9.2 mph 46 % 0.00 in 253.0 W/m2 CLR
14:39 52.0 °F 31.8 °F 30.20 in West 1.4 mph 9.2 mph 46 % 0.00 in 239.0 W/m2 CLR
14:44 51.7 °F 32.6 °F 30.20 in WNW 2.4 mph 9.2 mph 48 % 0.00 in 221.0 W/m2 CLR
14:49 51.5 °F 31.9 °F 30.20 in NNW 5.5 mph 6.9 mph 47 % 0.00 in 206.0 W/m2 CLR
14:54 51.6 °F 32.5 °F 30.21 in NW 2.2 mph 12.7 mph 48 % 0.00 in 193.0 W/m2 CLR
15:04 51.2 °F 31.6 °F 30.20 in WNW 2.6 mph 8.1 mph 47 % 0.00 in 162.0 W/m2 CLR
15:09 51.1 °F 32.1 °F 30.20 in WNW 3.4 mph 9.2 mph 48 % 0.00 in 144.0 W/m2 CLR
15:24 51.1 °F 32.1 °F 30.21 in WNW 1.5 mph 10.4 mph 48 % 0.00 in 102.0 W/m2 CLR
15:29 50.9 °F 31.9 °F 30.21 in NW 1.9 mph 9.2 mph 48 % 0.00 in 88.0 W/m2 CLR
15:34 50.7 °F 32.2 °F 30.21 in NW 2.2 mph 9.2 mph 49 % 0.00 in 77.0 W/m2 CLR
15:39 50.3 °F 31.3 °F 30.21 in NW 2.7 mph 10.4 mph 48 % 0.00 in 56.0 W/m2 CLR
15:49 50.1 °F 31.7 °F 30.21 in NW 2.7 mph 10.4 mph 49 % 0.00 in 39.0 W/m2 CLR
15:54 49.8 °F 31.9 °F 30.21 in West 1.4 mph 10.4 mph 50 % 0.00 in 28.0 W/m2 CLR
15:59 49.8 °F 31.9 °F 30.22 in NW 2.0 mph 4.6 mph 50 % 0.00 in 25.0 W/m2 CLR
16:04 49.3 °F 31.4 °F 30.22 in NW 1.1 mph 6.9 mph 50 % 0.00 in 21.0 W/m2 CLR
16:14 48.6 °F 31.3 °F 30.22 in NW 1.5 mph 8.1 mph 51 % 0.00 in 14.0 W/m2 CLR
16:19 48.4 °F 31.6 °F 30.22 in WNW 2.2 mph 8.1 mph 52 % 0.00 in 12.0 W/m2 CLR
16:24 48.0 °F 31.7 °F 30.22 in Calm   3.5 mph 53 % 0.00 in 9.0 W/m2 CLR
16:29 47.7 °F 31.9 °F 30.22 in Calm   3.5 mph 54 % 0.00 in 7.0 W/m2 CLR
16:34 47.6 °F 31.8 °F 30.23 in Calm     54 % 0.00 in 5.0 W/m2 CLR
16:39 47.2 °F 31.8 °F 30.23 in Calm     55 % 0.00 in 0.0 W/m2 CLR
16:44 46.8 °F 31.9 °F 30.23 in Calm     56 % 0.00 in 0.0 W/m2 CLR
16:49 46.6 °F 31.7 °F 30.23 in Calm     56 % 0.00 in 0.0 W/m2 CLR
16:54 46.4 °F 31.5 °F 30.23 in Calm     56 % 0.00 in 0.0 W/m2 CLR
16:59 45.9 °F 31.5 °F 30.24 in Calm     57 % 0.00 in 0.0 W/m2 CLR
17:09 45.4 °F 31.5 °F 30.24 in Calm     58 % 0.00 in 0.0 W/m2 CLR
17:14 45.0 °F 31.5 °F 30.24 in Calm     59 % 0.00 in 0.0 W/m2 CLR
17:19 44.5 °F 31.5 °F 30.25 in Calm     60 % 0.00 in 0.0 W/m2 CLR
17:24 44.2 °F 31.2 °F 30.24 in Calm     60 % 0.00 in 0.0 W/m2 CLR
17:29 43.7 °F 31.1 °F 30.24 in Calm     61 % 0.00 in 0.0 W/m2 CLR
17:34 43.3 °F 31.1 °F 30.24 in Calm     62 % 0.00 in 0.0 W/m2 CLR
17:39 43.1 °F 31.4 °F 30.25 in Calm     63 % 0.00 in 0.0 W/m2 CLR
17:44 42.4 °F 31.1 °F 30.25 in Calm     64 % 0.00 in 0.0 W/m2 CLR
17:49 42.2 °F 31.3 °F 30.26 in Calm     65 % 0.00 in 0.0 W/m2 CLR
17:54 42.2 °F 31.3 °F 30.26 in Calm     65 % 0.00 in 0.0 W/m2 CLR
17:59 42.0 °F 31.1 °F 30.26 in Calm     65 % 0.00 in 0.0 W/m2 CLR
18:09 41.4 °F 30.9 °F 30.27 in Calm     66 % 0.00 in 0.0 W/m2 CLR
18:19 41.4 °F 31.3 °F 30.27 in Calm     67 % 0.00 in 0.0 W/m2 CLR
18:24 41.0 °F 31.2 °F 30.27 in Calm     68 % 0.00 in 0.0 W/m2 CLR
18:29 41.0 °F 31.2 °F 30.26 in Calm     68 % 0.00 in 0.0 W/m2 CLR
18:44 40.1 °F 31.1 °F 30.27 in Calm     70 % 0.00 in 0.0 W/m2 CLR
18:49 39.6 °F 30.6 °F 30.27 in Calm     70 % 0.00 in 0.0 W/m2 CLR
18:59 39.6 °F 30.6 °F 30.27 in Calm     70 % 0.00 in 0.0 W/m2 CLR
19:04 39.4 °F 30.4 °F 30.27 in Calm     70 % 0.00 in 0.0 W/m2 CLR
19:09 39.0 °F 30.4 °F 30.27 in Calm     71 % 0.00 in 0.0 W/m2 CLR
19:15 38.5 °F 30.3 °F 30.27 in Calm     72 % 0.00 in 0.0 W/m2 CLR
19:22 38.2 °F 30.3 °F 30.28 in Calm     73 % 0.00 in 0.0 W/m2 CLR
19:27 37.8 °F 29.9 °F 30.28 in Calm     73 % 0.00 in 0.0 W/m2 CLR
19:37 37.5 °F 30.0 °F 30.28 in Calm     74 % 0.00 in 0.0 W/m2 CLR
19:42 37.2 °F 30.0 °F 30.28 in Calm     75 % 0.00 in 0.0 W/m2 CLR
19:47 36.7 °F 29.5 °F 30.28 in Calm     75 % 0.00 in 0.0 W/m2 CLR
19:57 36.2 °F 30.0 °F 30.28 in Calm     78 % 0.00 in 0.0 W/m2 CLR
20:12 35.3 °F 29.4 °F 30.28 in Calm     79 % 0.00 in 0.0 W/m2 CLR
20:17 35.3 °F 29.7 °F 30.28 in Calm     80 % 0.00 in 0.0 W/m2 CLR
20:22 35.2 °F 29.6 °F 30.28 in Calm     80 % 0.00 in 0.0 W/m2 CLR
20:27 34.7 °F 29.2 °F 30.28 in Calm     80 % 0.00 in 0.0 W/m2 CLR
20:37 34.7 °F 29.5 °F 30.29 in Calm     81 % 0.00 in 0.0 W/m2 CLR
20:42 34.7 °F 29.5 °F 30.29 in Calm     81 % 0.00 in 0.0 W/m2 CLR
20:47 34.3 °F 29.1 °F 30.29 in Calm     81 % 0.00 in 0.0 W/m2 CLR
20:52 34.2 °F 29.3 °F 30.29 in Calm     82 % 0.00 in 0.0 W/m2 CLR
21:02 34.2 °F 29.3 °F 30.29 in Calm     82 % 0.00 in 0.0 W/m2 CLR
21:12 33.9 °F 29.0 °F 30.30 in Calm     82 % 0.00 in 0.0 W/m2 CLR
21:17 33.5 °F 28.6 °F 30.30 in Calm     82 % 0.00 in 0.0 W/m2 CLR
21:22 33.3 °F 28.7 °F 30.31 in Calm     83 % 0.00 in 0.0 W/m2 CLR
21:27 33.3 °F 28.7 °F 30.30 in Calm     83 % 0.00 in 0.0 W/m2 CLR
21:32 33.3 °F 28.7 °F 30.31 in Calm     83 % 0.00 in 0.0 W/m2 CLR
21:37 32.8 °F 28.2 °F 30.30 in Calm     83 % 0.00 in 0.0 W/m2 CLR
21:47 32.1 °F 27.8 °F 30.30 in Calm     84 % 0.00 in 0.0 W/m2 CLR
21:52 31.9 °F 27.6 °F 30.31 in Calm     84 % 0.00 in 0.0 W/m2 CLR
21:53 31.9 °F 27.6 °F 30.31 in Calm     84 % 0.00 in 0.0 W/m2 CLR
21:58 31.7 °F 27.4 °F 30.31 in Calm     84 % 0.00 in 0.0 W/m2 CLR
22:04 31.4 °F 27.4 °F 30.31 in Calm     85 % 0.00 in 0.0 W/m2 CLR
22:09 31.1 °F 27.1 °F 30.31 in Calm     85 % 0.00 in 0.0 W/m2 CLR
22:14 31.1 °F 27.1 °F 30.31 in Calm     85 % 0.00 in 0.0 W/m2 CLR
22:21 31.2 °F 27.5 °F 30.31 in Calm     86 % 0.00 in 0.0 W/m2 CLR
22:23 31.1 °F 27.4 °F 30.31 in Calm     86 % 0.00 in 0.0 W/m2 CLR
22:26 31.1 °F 27.4 °F 30.30 in Calm     86 % 0.00 in 0.0 W/m2 CLR
22:42 31.0 °F 27.6 °F 30.30 in Calm     87 % 0.00 in 0.0 W/m2 CLR
22:47 30.9 °F 27.5 °F 30.31 in Calm     87 % 0.00 in 0.0 W/m2 CLR
22:52 30.8 °F 27.4 °F 30.30 in Calm     87 % 0.00 in 0.0 W/m2 CLR
22:57 30.7 °F 27.3 °F 30.30 in Calm     87 % 0.00 in 0.0 W/m2 CLR
23:02 30.5 °F 27.1 °F 30.31 in Calm     87 % 0.00 in 0.0 W/m2 CLR
23:07 30.2 °F 26.8 °F 30.31 in Calm     87 % 0.00 in 0.0 W/m2 CLR
23:12 30.1 °F 26.7 °F 30.31 in Calm     87 % 0.00 in 0.0 W/m2 CLR
23:22 30.0 °F 26.6 °F 30.31 in Calm     87 % 0.00 in 0.0 W/m2 CLR
23:23 30.0 °F 26.6 °F 30.31 in Calm     87 % 0.00 in 0.0 W/m2 CLR
23:28 30.0 °F 26.9 °F 30.31 in Calm     88 % 0.00 in 0.0 W/m2 CLR
23:33 29.9 °F 26.8 °F 30.30 in Calm     88 % 0.00 in 0.0 W/m2 CLR
23:38 29.8 °F 26.7 °F 30.31 in Calm     88 % 0.00 in 0.0 W/m2 CLR
23:43 29.8 °F 26.7 °F 30.30 in Calm     88 % 0.00 in 0.0 W/m2 CLR
23:58 29.6 °F 26.5 °F 30.30 in Calm     88 % 0.00 in 0.0 W/m2 CLR
Air Products Campus Weather
Compliments of Weather Underground - 3 mb